createdAt,value
2022-09-03T00:00:17.417Z,96708.25
2022-09-03T00:01:29.286Z,96707.25
2022-09-03T00:02:46.079Z,96708.59
2022-09-03T00:03:51.991Z,96705.19
2022-09-03T00:05:00.968Z,96708.84
2022-09-03T00:06:02.841Z,96705.19
2022-09-03T00:07:09.372Z,96710.09
2022-09-03T00:08:11.167Z,96715.34
2022-09-03T00:09:16.264Z,96713.75
2022-09-03T00:10:25.756Z,96711.72
2022-09-03T00:11:32.640Z,96709.66
2022-09-03T00:12:39.663Z,96717.06
2022-09-03T00:14:03.520Z,96716.84
2022-09-03T00:15:11.432Z,96713.75
2022-09-03T00:16:16.413Z,96714.34
2022-09-03T00:17:21.000Z,96719.34
2022-09-03T00:18:25.171Z,96717.53
2022-09-03T00:19:32.794Z,96721.97
2022-09-03T00:20:37.845Z,96712.50
2022-09-03T00:21:44.617Z,96712.50
2022-09-03T00:22:51.178Z,96711.38
2022-09-03T00:23:53.796Z,96716.63
2022-09-03T00:24:57.455Z,96715.00
2022-09-03T00:26:03.510Z,96708.75
2022-09-03T00:27:07.255Z,96714.00
2022-09-03T00:28:15.081Z,96708.63
2022-09-03T00:29:40.169Z,96712.72
2022-09-03T00:30:43.047Z,96705.91
2022-09-03T00:31:48.565Z,96710.34
2022-09-03T00:32:53.191Z,96709.53
2022-09-03T00:34:07.346Z,96711.72
2022-09-03T00:35:17.156Z,96704.84
2022-09-03T00:36:26.697Z,96703.06
2022-09-03T00:37:29.902Z,96703.28
2022-09-03T00:38:38.203Z,96704.53
2022-09-03T00:39:40.019Z,96702.69
2022-09-03T00:40:44.697Z,96704.28
2022-09-03T00:41:59.825Z,96699.38
2022-09-03T00:43:07.725Z,96693.78
2022-09-03T00:44:17.300Z,96694.59
2022-09-03T00:45:35.054Z,96692.56
2022-09-03T00:46:45.704Z,96696.53
2022-09-03T00:48:06.869Z,96693.91
2022-09-03T00:49:17.805Z,96695.28
2022-09-03T00:50:19.622Z,96690.81
2022-09-03T00:51:34.819Z,96694.47
2022-09-03T00:52:36.582Z,96699.84
2022-09-03T00:53:58.642Z,96701.66
2022-09-03T00:55:07.416Z,96702.22
2022-09-03T00:56:24.432Z,96700.19
2022-09-03T00:57:32.394Z,96698.94
2022-09-03T00:58:34.217Z,96703.16
2022-09-03T00:59:59.356Z,96701.31
2022-09-03T01:01:05.729Z,96696.88
2022-09-03T01:02:07.679Z,96694.47
2022-09-03T01:03:11.902Z,96705.78
2022-09-03T01:04:22.085Z,96701.00
2022-09-03T01:06:01.933Z,96693.34
2022-09-03T01:07:03.840Z,96700.19
2022-09-03T01:08:16.001Z,96700.19
2022-09-03T01:09:27.062Z,96705.09
2022-09-03T01:10:58.078Z,96701.09
2022-09-03T01:12:22.863Z,96702.69
2022-09-03T01:13:31.196Z,96700.66
2022-09-03T01:14:52.765Z,96702.47
2022-09-03T01:16:11.067Z,96699.84
2022-09-03T01:17:24.944Z,96713.19
2022-09-03T01:18:42.836Z,96707.38
2022-09-03T01:19:47.441Z,96705.78
2022-09-03T01:20:55.358Z,96708.41
2022-09-03T01:22:20.816Z,96708.97
2022-09-03T01:23:37.741Z,96713.19
2022-09-03T01:24:59.374Z,96714.78
2022-09-03T01:26:23.287Z,96714.78
2022-09-03T01:27:40.582Z,96716.63
2022-09-03T01:28:50.703Z,96713.63
2022-09-03T01:30:06.461Z,96719.34
2022-09-03T01:31:14.779Z,96720.94
2022-09-03T01:32:29.487Z,96721.16
2022-09-03T01:33:38.637Z,96724.03
2022-09-03T01:34:48.307Z,96720.38
2022-09-03T01:35:56.035Z,96717.19
2022-09-03T01:37:07.055Z,96719.44
2022-09-03T01:38:27.385Z,96711.84
2022-09-03T01:39:31.954Z,96713.41
2022-09-03T01:40:34.039Z,96710.34
2022-09-03T01:42:03.430Z,96719.81
2022-09-03T01:43:20.271Z,96718.22
2022-09-03T01:44:28.483Z,96721.84
2022-09-03T01:45:36.191Z,96723.47
2022-09-03T01:46:40.090Z,96729.28
2022-09-03T01:47:57.033Z,96722.44
2022-09-03T01:49:05.433Z,96719.69
2022-09-03T01:50:10.806Z,96731.09
2022-09-03T01:51:12.618Z,96727.66
2022-09-03T01:52:18.206Z,96725.50
2022-09-03T01:53:45.480Z,96726.88
2022-09-03T01:54:55.709Z,96727.78
2022-09-03T01:56:16.710Z,96734.72
2022-09-03T01:57:37.543Z,96722.66
2022-09-03T01:58:52.137Z,96734.50
2022-09-03T01:59:59.827Z,96726.63
2022-09-03T02:01:10.482Z,96730.31
2022-09-03T02:02:20.420Z,96732.09
2022-09-03T02:03:22.961Z,96733.72
2022-09-03T02:04:26.509Z,96731.88
2022-09-03T02:05:29.518Z,96729.94
2022-09-03T02:06:34.525Z,96732.78
2022-09-03T02:07:38.446Z,96733.22
2022-09-03T02:08:40.503Z,96733.47
2022-09-03T02:09:43.366Z,96743.72
2022-09-03T02:10:47.797Z,96741.66
2022-09-03T02:12:20.607Z,96736.09
2022-09-03T02:13:28.510Z,96743.72
2022-09-03T02:14:30.535Z,96745.31
2022-09-03T02:15:34.960Z,96751.34
2022-09-03T02:16:37.618Z,96740.06
2022-09-03T02:17:41.537Z,96748.53
2022-09-03T02:18:46.368Z,96741.22
2022-09-03T02:19:48.323Z,96745.69
2022-09-03T02:20:50.652Z,96747.25
2022-09-03T02:21:53.399Z,96742.03
2022-09-03T02:22:56.367Z,96744.84
2022-09-03T02:23:58.446Z,96746.69
2022-09-03T02:25:00.597Z,96751.16
2022-09-03T02:26:03.072Z,96744.28
2022-09-03T02:27:04.997Z,96754.78
2022-09-03T02:28:16.594Z,96746.91
2022-09-03T02:29:19.785Z,96744.53
2022-09-03T02:30:21.779Z,96742.69
2022-09-03T02:31:24.376Z,96741.44
2022-09-03T02:32:27.096Z,96748.31
2022-09-03T02:33:37.521Z,96734.38
2022-09-03T02:34:39.357Z,96743.28
2022-09-03T02:35:41.572Z,96738.03
2022-09-03T02:36:46.198Z,96736.41
2022-09-03T02:37:48.035Z,96744.28
2022-09-03T02:38:49.986Z,96742.47
2022-09-03T02:39:52.492Z,96740.28
2022-09-03T02:40:54.945Z,96744.19
2022-09-03T02:41:58.050Z,96743.13
2022-09-03T02:43:00.137Z,96742.91
2022-09-03T02:44:05.101Z,96749.78
2022-09-03T02:45:25.357Z,96750.56
2022-09-03T02:46:34.197Z,96751.00
2022-09-03T02:47:36.866Z,96742.56
2022-09-03T02:48:38.819Z,96741.78
2022-09-03T02:49:40.802Z,96742.56
2022-09-03T02:50:43.126Z,96742.56
2022-09-03T02:51:45.470Z,96737.78
2022-09-03T02:52:47.370Z,96737.00
2022-09-03T02:53:49.430Z,96742.00
2022-09-03T02:54:52.764Z,96737.22
2022-09-03T02:55:58.471Z,96742.31
2022-09-03T02:57:00.514Z,96733.78
2022-09-03T02:58:02.330Z,96732.16
2022-09-03T02:59:05.444Z,96740.03
2022-09-03T03:00:08.165Z,96731.59
2022-09-03T03:01:09.932Z,96738.22
2022-09-03T03:02:12.802Z,96731.72
2022-09-03T03:03:14.640Z,96726.25
2022-09-03T03:04:17.238Z,96730.25
2022-09-03T03:05:24.072Z,96726.59
2022-09-03T03:06:26.100Z,96736.06
2022-09-03T03:07:29.130Z,96730.03
2022-09-03T03:08:33.242Z,96729.47
2022-09-03T03:09:35.089Z,96727.50
2022-09-03T03:10:37.917Z,96728.53
2022-09-03T03:11:40.584Z,96724.53
2022-09-03T03:12:42.728Z,96726.34
2022-09-03T03:13:45.997Z,96723.50
2022-09-03T03:14:47.929Z,96726.34
2022-09-03T03:15:49.798Z,96730.44
2022-09-03T03:16:52.195Z,96722.78
2022-09-03T03:17:57.439Z,96729.84
2022-09-03T03:19:00.382Z,96737.72
2022-09-03T03:20:02.369Z,96736.34
2022-09-03T03:21:05.757Z,96736.13
2022-09-03T03:22:07.650Z,96735.88
2022-09-03T03:23:10.211Z,96737.28
2022-09-03T03:24:12.098Z,96740.91
2022-09-03T03:25:13.998Z,96732.25
2022-09-03T03:26:20.444Z,96740.13
2022-09-03T03:27:22.878Z,96735.31
2022-09-03T03:28:24.766Z,96727.22
2022-09-03T03:29:26.807Z,96727.03
2022-09-03T03:30:28.710Z,96727.22
2022-09-03T03:31:31.072Z,96726.44
2022-09-03T03:32:32.943Z,96721.78
2022-09-03T03:33:35.447Z,96727.81
2022-09-03T03:34:37.963Z,96723.59
2022-09-03T03:35:41.195Z,96729.84
2022-09-03T03:36:43.069Z,96720.97
2022-09-03T03:37:44.887Z,96724.41
2022-09-03T03:38:46.781Z,96725.75
2022-09-03T03:39:48.785Z,96725.53
2022-09-03T03:40:50.607Z,96729.44
2022-09-03T03:41:52.941Z,96731.00
2022-09-03T03:42:55.363Z,96726.81
2022-09-03T03:43:58.327Z,96731.22
2022-09-03T03:45:00.443Z,96729.84
2022-09-03T03:46:02.473Z,96730.91
2022-09-03T03:47:06.321Z,96735.47
2022-09-03T03:48:08.195Z,96736.03
2022-09-03T03:49:10.746Z,96731.59
2022-09-03T03:50:12.624Z,96735.47
2022-09-03T03:51:14.452Z,96737.28
2022-09-03T03:52:16.236Z,96740.47
2022-09-03T03:53:18.209Z,96733.63
2022-09-03T03:54:20.096Z,96735.88
2022-09-03T03:55:21.950Z,96731.69
2022-09-03T03:56:24.452Z,96733.50
2022-09-03T03:57:26.309Z,96729.84
2022-09-03T03:58:29.006Z,96725.19
2022-09-03T03:59:30.872Z,96730.00
2022-09-03T04:00:33.371Z,96730.00
2022-09-03T04:01:35.297Z,96738.44
2022-09-03T04:02:39.151Z,96731.94
2022-09-03T04:03:41.661Z,96741.63
2022-09-03T04:04:43.833Z,96735.59
2022-09-03T04:05:56.343Z,96739.22
2022-09-03T04:06:58.292Z,96733.19
2022-09-03T04:08:02.688Z,96736.81
2022-09-03T04:09:04.508Z,96733.19
2022-09-03T04:10:06.707Z,96726.34
2022-09-03T04:11:10.354Z,96734.19
2022-09-03T04:12:12.177Z,96729.53
2022-09-03T04:13:14.543Z,96737.97
2022-09-03T04:14:16.449Z,96734.56
2022-09-03T04:15:18.348Z,96728.53
2022-09-03T04:16:21.588Z,96730.94
2022-09-03T04:17:25.432Z,96740.94
2022-09-03T04:18:27.433Z,96738.91
2022-09-03T04:19:32.828Z,96740.38
2022-09-03T04:20:36.754Z,96741.06
2022-09-03T04:21:39.571Z,96743.41
2022-09-03T04:22:41.439Z,96743.06
2022-09-03T04:23:44.334Z,96746.94
2022-09-03T04:24:46.215Z,96746.47
2022-09-03T04:25:53.086Z,96756.28
2022-09-03T04:26:55.063Z,96746.16
2022-09-03T04:27:56.867Z,96751.41
2022-09-03T04:29:05.893Z,96752.19
2022-09-03T04:30:08.190Z,96742.53
2022-09-03T04:31:11.360Z,96742.88
2022-09-03T04:32:32.372Z,96750.50
2022-09-03T04:33:34.668Z,96738.78
2022-09-03T04:34:36.687Z,96754.06
2022-09-03T04:35:38.587Z,96749.38
2022-09-03T04:36:40.420Z,96749.84
2022-09-03T04:37:42.265Z,96749.03
2022-09-03T04:38:45.584Z,96750.44
2022-09-03T04:39:47.535Z,96750.44
2022-09-03T04:40:52.781Z,96755.75
2022-09-03T04:41:54.968Z,96757.44
2022-09-03T04:42:57.412Z,96762.34
2022-09-03T04:43:59.944Z,96758.09
2022-09-03T04:45:01.785Z,96756.53
2022-09-03T04:46:05.732Z,96756.84
2022-09-03T04:47:07.556Z,96763.34
2022-09-03T04:48:12.130Z,96761.19
2022-09-03T04:49:14.105Z,96757.63
2022-09-03T04:50:16.112Z,96758.44
2022-09-03T04:51:19.633Z,96754.81
2022-09-03T04:52:21.790Z,96758.59
2022-09-03T04:53:23.684Z,96755.59
2022-09-03T04:54:29.276Z,96763.56
2022-09-03T04:55:35.574Z,96763.13
2022-09-03T04:56:39.515Z,96762.69
2022-09-03T04:57:43.261Z,96761.22
2022-09-03T04:58:45.487Z,96769.44
2022-09-03T04:59:47.828Z,96765.81
2022-09-03T05:00:50.292Z,96760.34
2022-09-03T05:01:56.601Z,96761.91
2022-09-03T05:03:00.898Z,96762.28
2022-09-03T05:04:02.898Z,96765.91
2022-09-03T05:05:04.896Z,96769.34
2022-09-03T05:06:08.190Z,96772.31
2022-09-03T05:07:10.561Z,96767.88
2022-09-03T05:08:12.521Z,96765.59
2022-09-03T05:09:14.439Z,96769.69
2022-09-03T05:10:20.762Z,96771.50
2022-09-03T05:11:23.089Z,96767.53
2022-09-03T05:12:25.090Z,96772.97
2022-09-03T05:13:27.394Z,96770.00
2022-09-03T05:14:29.360Z,96778.34
2022-09-03T05:15:32.412Z,96768.28
2022-09-03T05:16:34.270Z,96775.94
2022-09-03T05:17:38.838Z,96768.28
2022-09-03T05:18:42.672Z,96778.75
2022-09-03T05:19:45.010Z,96772.94
2022-09-03T05:20:46.833Z,96771.38
2022-09-03T05:21:48.899Z,96768.50
2022-09-03T05:22:51.141Z,96774.34
2022-09-03T05:23:53.374Z,96774.66
2022-09-03T05:24:56.645Z,96774.44
2022-09-03T05:25:59.278Z,96772.41
2022-09-03T05:27:02.397Z,96771.84
2022-09-03T05:28:04.367Z,96765.44
2022-09-03T05:29:08.023Z,96769.44
2022-09-03T05:30:10.172Z,96767.63
2022-09-03T05:31:16.871Z,96770.69
2022-09-03T05:32:18.830Z,96767.63
2022-09-03T05:33:24.178Z,96766.94
2022-09-03T05:34:26.208Z,96772.78
2022-09-03T05:35:30.186Z,96763.28
2022-09-03T05:36:34.220Z,96769.00
2022-09-03T05:37:36.111Z,96771.25
2022-09-03T05:38:38.335Z,96774.25
2022-09-03T05:39:40.116Z,96766.94
2022-09-03T05:40:42.074Z,96767.31
2022-09-03T05:41:43.963Z,96765.25
2022-09-03T05:42:45.762Z,96770.03
2022-09-03T05:43:56.949Z,96768.78
2022-09-03T05:44:58.959Z,96766.63
2022-09-03T05:46:02.182Z,96765.00
2022-09-03T05:47:04.343Z,96766.41
2022-09-03T05:48:06.272Z,96769.03
2022-09-03T05:49:08.158Z,96766.06
2022-09-03T05:50:11.042Z,96759.19
2022-09-03T05:51:13.271Z,96759.78
2022-09-03T05:52:15.137Z,96761.16
2022-09-03T05:53:17.767Z,96756.50
2022-09-03T05:54:19.600Z,96757.06
2022-09-03T05:55:21.522Z,96753.19
2022-09-03T05:56:24.487Z,96761.06
2022-09-03T05:57:26.304Z,96756.94
2022-09-03T05:58:32.304Z,96755.34
2022-09-03T05:59:34.098Z,96758.63
2022-09-03T06:00:37.445Z,96756.00
2022-09-03T06:01:40.700Z,96751.34
2022-09-03T06:02:43.727Z,96750.91
2022-09-03T06:03:46.667Z,96761.75
2022-09-03T06:04:48.792Z,96756.72
2022-09-03T06:05:54.834Z,96763.53
2022-09-03T06:06:56.808Z,96766.75
2022-09-03T06:07:58.654Z,96764.69
2022-09-03T06:09:11.089Z,96761.50
2022-09-03T06:10:12.929Z,96759.13
2022-09-03T06:11:14.789Z,96757.72
2022-09-03T06:12:17.277Z,96759.56
2022-09-03T06:13:19.704Z,96763.66
2022-09-03T06:14:22.260Z,96756.91
2022-09-03T06:15:24.127Z,96762.59
2022-09-03T06:16:30.705Z,96757.72
2022-09-03T06:17:34.401Z,96750.75
2022-09-03T06:18:36.249Z,96750.91
2022-09-03T06:19:38.094Z,96755.47
2022-09-03T06:20:39.942Z,96758.44
2022-09-03T06:21:43.262Z,96757.75
2022-09-03T06:22:48.742Z,96750.81
2022-09-03T06:23:56.842Z,96760.41
2022-09-03T06:25:01.367Z,96751.84
2022-09-03T06:26:06.316Z,96750.59
2022-09-03T06:27:08.821Z,96750.16
2022-09-03T06:28:10.717Z,96752.91
2022-09-03T06:29:12.969Z,96749.59
2022-09-03T06:30:16.056Z,96751.50
2022-09-03T06:31:19.567Z,96749.25
2022-09-03T06:32:21.469Z,96747.75
2022-09-03T06:33:25.477Z,96744.44
2022-09-03T06:34:27.523Z,96751.66
2022-09-03T06:35:29.533Z,96745.56
2022-09-03T06:36:33.425Z,96747.19
2022-09-03T06:37:40.425Z,96752.78
2022-09-03T06:38:43.363Z,96752.31
2022-09-03T06:39:45.386Z,96758.69
2022-09-03T06:40:52.973Z,96754.00
2022-09-03T06:41:55.422Z,96750.94
2022-09-03T06:43:03.092Z,96756.53
2022-09-03T06:44:06.350Z,96755.06
2022-09-03T06:45:12.309Z,96752.56
2022-09-03T06:46:15.446Z,96743.88
2022-09-03T06:47:17.421Z,96739.75
2022-09-03T06:48:19.330Z,96754.38
2022-09-03T06:49:22.070Z,96755.25
2022-09-03T06:50:24.024Z,96749.19
2022-09-03T06:51:26.849Z,96745.06
2022-09-03T06:52:31.766Z,96739.38
2022-09-03T06:53:35.936Z,96743.34
2022-09-03T06:54:39.906Z,96745.75
2022-09-03T06:55:43.471Z,96736.19
2022-09-03T06:56:45.339Z,96744.16
2022-09-03T06:57:49.030Z,96735.59
2022-09-03T06:58:57.499Z,96739.09
2022-09-03T06:59:59.537Z,96736.25
2022-09-03T07:01:07.096Z,96733.94
2022-09-03T07:02:09.114Z,96739.84
2022-09-03T07:03:10.954Z,96735.31
2022-09-03T07:04:14.071Z,96731.66
2022-09-03T07:05:15.979Z,96734.38
2022-09-03T07:06:19.367Z,96735.19
2022-09-03T07:07:21.814Z,96737.81
2022-09-03T07:08:23.631Z,96741.88
2022-09-03T07:09:25.753Z,96741.75
2022-09-03T07:10:28.348Z,96732.66
2022-09-03T07:11:31.578Z,96740.41
2022-09-03T07:12:37.978Z,96736.28
2022-09-03T07:13:42.007Z,96730.06
2022-09-03T07:14:43.908Z,96738.03
2022-09-03T07:15:45.733Z,96732.09
2022-09-03T07:16:48.259Z,96729.53
2022-09-03T07:17:50.593Z,96734.31
2022-09-03T07:18:52.948Z,96725.16
2022-09-03T07:19:54.823Z,96730.53
2022-09-03T07:21:03.201Z,96727.97
2022-09-03T07:22:05.382Z,96732.28
2022-09-03T07:23:07.158Z,96729.41
2022-09-03T07:24:09.906Z,96738.09
2022-09-03T07:25:11.894Z,96735.47
2022-09-03T07:26:15.553Z,96730.75
2022-09-03T07:27:17.380Z,96729.97
2022-09-03T07:28:19.314Z,96730.03
2022-09-03T07:29:21.686Z,96728.78
2022-09-03T07:30:23.812Z,96732.19
2022-09-03T07:31:30.175Z,96731.22
2022-09-03T07:32:33.634Z,96734.97
2022-09-03T07:33:35.506Z,96734.50
2022-09-03T07:34:37.313Z,96729.25
2022-09-03T07:35:39.280Z,96729.84
2022-09-03T07:36:43.302Z,96731.75
2022-09-03T07:37:45.255Z,96727.59
2022-09-03T07:38:47.061Z,96735.59
2022-09-03T07:39:48.963Z,96738.28
2022-09-03T07:40:58.043Z,96733.56
2022-09-03T07:42:00.646Z,96726.78
2022-09-03T07:43:04.794Z,96736.91
2022-09-03T07:44:08.695Z,96729.78
2022-09-03T07:45:12.795Z,96731.22
2022-09-03T07:46:23.766Z,96730.22
2022-09-03T07:47:27.001Z,96728.69
2022-09-03T07:48:29.021Z,96727.16
2022-09-03T07:49:30.885Z,96723.00
2022-09-03T07:50:38.027Z,96723.59
2022-09-03T07:51:40.158Z,96732.03
2022-09-03T07:52:42.064Z,96731.28
2022-09-03T07:53:44.485Z,96724.72
2022-09-03T07:54:46.326Z,96733.19
2022-09-03T07:55:49.174Z,96722.94
2022-09-03T07:56:51.082Z,96726.44
2022-09-03T07:57:57.025Z,96725.44
2022-09-03T07:58:59.674Z,96731.34
2022-09-03T08:00:01.505Z,96725.56
2022-09-03T08:01:09.009Z,96721.91
2022-09-03T08:02:13.320Z,96720.91
2022-09-03T08:03:15.183Z,96729.34
2022-09-03T08:04:16.986Z,96726.75
2022-09-03T08:05:21.485Z,96727.84
2022-09-03T08:06:24.685Z,96728.94
2022-09-03T08:07:26.580Z,96724.75
2022-09-03T08:08:31.272Z,96726.66
2022-09-03T08:09:37.235Z,96732.75
2022-09-03T08:10:40.285Z,96723.56
2022-09-03T08:11:43.857Z,96721.75
2022-09-03T08:12:45.769Z,96716.78
2022-09-03T08:13:49.043Z,96722.09
2022-09-03T08:14:51.520Z,96723.97
2022-09-03T08:15:57.095Z,96724.53
2022-09-03T08:17:00.360Z,96725.59
2022-09-03T08:18:03.671Z,96722.22
2022-09-03T08:19:08.006Z,96719.66
2022-09-03T08:20:10.619Z,96725.22
2022-09-03T08:21:17.215Z,96723.91
2022-09-03T08:22:19.040Z,96720.22
2022-09-03T08:23:20.882Z,96713.38
2022-09-03T08:24:24.947Z,96716.06
2022-09-03T08:25:26.818Z,96715.03
2022-09-03T08:26:31.411Z,96717.72
2022-09-03T08:27:33.571Z,96711.63
2022-09-03T08:28:37.967Z,96711.66
2022-09-03T08:29:39.778Z,96715.94
2022-09-03T08:30:41.588Z,96717.00
2022-09-03T08:31:44.715Z,96717.03
2022-09-03T08:32:46.574Z,96712.56
2022-09-03T08:33:51.118Z,96709.16
2022-09-03T08:34:52.958Z,96718.41
2022-09-03T08:35:55.132Z,96719.25
2022-09-03T08:36:57.128Z,96719.50
2022-09-03T08:38:01.985Z,96720.31
2022-09-03T08:39:04.965Z,96717.72
2022-09-03T08:40:07.716Z,96715.06
2022-09-03T08:41:16.530Z,96715.41
2022-09-03T08:42:42.307Z,96722.28
2022-09-03T08:43:44.135Z,96710.91
2022-09-03T08:44:48.751Z,96706.16
2022-09-03T08:45:50.640Z,96715.16
2022-09-03T08:46:58.583Z,96706.22
2022-09-03T08:48:04.006Z,96704.38
2022-09-03T08:49:07.469Z,96699.88
2022-09-03T08:50:25.343Z,96699.91
2022-09-03T08:51:30.064Z,96702.00
2022-09-03T08:52:39.151Z,96694.09
2022-09-03T08:53:45.143Z,96696.72
2022-09-03T08:54:47.935Z,96688.81
2022-09-03T08:55:51.256Z,96694.63
2022-09-03T08:56:54.369Z,96693.31
2022-09-03T08:58:15.798Z,96692.00
2022-09-03T08:59:17.665Z,96687.22
2022-09-03T09:00:19.877Z,96686.16
2022-09-03T09:01:24.841Z,96690.69
2022-09-03T09:02:30.106Z,96681.44
2022-09-03T09:03:42.643Z,96690.44
2022-09-03T09:04:51.627Z,96690.44
2022-09-03T09:06:09.467Z,96687.78
2022-09-03T09:07:26.506Z,96683.00
2022-09-03T09:08:47.165Z,96685.66
2022-09-03T09:10:04.071Z,96686.72
2022-09-03T09:11:15.118Z,96685.13
2022-09-03T09:12:41.457Z,96690.69
2022-09-03T09:13:58.377Z,96685.66
2022-09-03T09:15:06.300Z,96693.84
2022-09-03T09:16:19.711Z,96688.00
2022-09-03T09:17:21.532Z,96682.41
2022-09-03T09:18:26.295Z,96686.13
2022-09-03T09:19:28.012Z,96687.16
2022-09-03T09:20:36.330Z,96687.94
2022-09-03T09:21:46.629Z,96686.09
2022-09-03T09:22:51.137Z,96691.38
2022-09-03T09:23:54.557Z,96695.09
2022-09-03T09:24:58.779Z,96691.09
2022-09-03T09:26:03.348Z,96692.41
2022-09-03T09:27:06.429Z,96690.28
2022-09-03T09:28:17.590Z,96686.78
2022-09-03T09:29:19.403Z,96692.38
2022-09-03T09:30:21.357Z,96689.47
2022-09-03T09:31:23.226Z,96692.13
2022-09-03T09:32:25.176Z,96685.47
2022-09-03T09:33:27.367Z,96693.41
2022-09-03T09:34:34.985Z,96697.13
2022-09-03T09:35:37.063Z,96691.56
2022-09-03T09:36:59.157Z,96692.88
2022-09-03T09:38:00.955Z,96694.47
2022-09-03T09:39:12.268Z,96689.69
2022-09-03T09:40:23.326Z,96698.41
2022-09-03T09:41:29.669Z,96694.94
2022-09-03T09:42:32.036Z,96697.31
2022-09-03T09:43:33.866Z,96693.84
2022-09-03T09:44:39.303Z,96688.53
2022-09-03T09:45:42.314Z,96685.06
2022-09-03T09:46:44.796Z,96689.78
2022-09-03T09:47:47.434Z,96688.16
2022-09-03T09:48:52.365Z,96679.88
2022-09-03T09:49:54.215Z,96692.03
2022-09-03T09:51:16.233Z,96696.19
2022-09-03T09:52:18.696Z,96691.91
2022-09-03T09:53:21.978Z,96695.53
2022-09-03T09:54:28.220Z,96690.19
2022-09-03T09:55:30.062Z,96690.16
2022-09-03T09:56:31.898Z,96689.81
2022-09-03T09:57:34.571Z,96688.97
2022-09-03T09:58:36.637Z,96685.72
2022-09-03T09:59:38.516Z,96688.34
2022-09-03T10:00:40.262Z,96688.28
2022-09-03T10:01:43.475Z,96681.84
2022-09-03T10:02:52.343Z,96680.19
2022-09-03T10:03:55.620Z,96676.91
2022-09-03T10:05:40.785Z,96669.44
2022-09-03T10:06:57.468Z,96674.66
2022-09-03T10:08:04.804Z,96669.78
2022-09-03T10:09:16.989Z,96664.91
2022-09-03T10:10:21.245Z,96670.69
2022-09-03T10:11:25.905Z,96674.06
2022-09-03T10:12:30.378Z,96676.09
2022-09-03T10:13:40.802Z,96674.94
2022-09-03T10:14:47.985Z,96677.03
2022-09-03T10:15:55.303Z,96679.41
2022-09-03T10:17:02.496Z,96684.66
2022-09-03T10:18:10.139Z,96676.59
2022-09-03T10:19:30.931Z,96681.59
2022-09-03T10:20:40.991Z,96682.81
2022-09-03T10:21:42.707Z,96680.88
2022-09-03T10:22:56.828Z,96676.78
2022-09-03T10:24:16.306Z,96675.34
2022-09-03T10:25:18.291Z,96681.88
2022-09-03T10:26:32.491Z,96680.22
2022-09-03T10:27:34.536Z,96684.38
2022-09-03T10:28:44.276Z,96683.22
2022-09-03T10:29:46.387Z,96678.03
2022-09-03T10:31:03.239Z,96680.09
2022-09-03T10:32:24.303Z,96676.56
2022-09-03T10:33:48.823Z,96684.72
2022-09-03T10:35:05.222Z,96686.19
2022-09-03T10:36:15.716Z,96680.19
2022-09-03T10:37:17.644Z,96684.84
2022-09-03T10:38:28.760Z,96680.78
2022-09-03T10:39:42.759Z,96681.50
2022-09-03T10:40:50.217Z,96681.41
2022-09-03T10:41:56.147Z,96674.91
2022-09-03T10:43:13.315Z,96677.25
2022-09-03T10:44:50.795Z,96669.97
2022-09-03T10:46:12.012Z,96680.03
2022-09-03T10:47:13.710Z,96671.16
2022-09-03T10:48:43.402Z,96677.75
2022-09-03T10:49:49.859Z,96678.47
2022-09-03T10:51:04.441Z,96674.72
2022-09-03T10:52:09.102Z,96672.94
2022-09-03T10:53:14.100Z,96675.31
2022-09-03T10:54:25.454Z,96670.78
2022-09-03T10:55:51.755Z,96673.34
2022-09-03T10:56:58.853Z,96672.16
2022-09-03T10:58:16.587Z,96674.91
2022-09-03T10:59:29.327Z,96676.88
2022-09-03T11:00:34.336Z,96671.09
2022-09-03T11:01:48.471Z,96675.28
2022-09-03T11:03:08.438Z,96672.97
2022-09-03T11:04:20.198Z,96671.16
2022-09-03T11:05:30.805Z,96674.72
2022-09-03T11:06:43.979Z,96671.16
2022-09-03T11:07:45.829Z,96671.81
2022-09-03T11:09:07.998Z,96680.00
2022-09-03T11:10:17.491Z,96669.50
2022-09-03T11:11:29.353Z,96670.97
2022-09-03T11:12:46.091Z,96672.13
2022-09-03T11:13:52.136Z,96668.72
2022-09-03T11:15:00.967Z,96667.81
2022-09-03T11:16:06.773Z,96667.19
2022-09-03T11:17:23.821Z,96674.00
2022-09-03T11:18:39.067Z,96673.56
2022-09-03T11:19:51.224Z,96675.50
2022-09-03T11:20:55.579Z,96672.09
2022-09-03T11:21:57.738Z,96663.31
2022-09-03T11:23:02.180Z,96674.81
2022-09-03T11:24:08.237Z,96676.69
2022-09-03T11:25:12.118Z,96667.44
2022-09-03T11:26:17.470Z,96670.00
2022-09-03T11:27:19.344Z,96675.84
2022-09-03T11:28:29.785Z,96675.56
2022-09-03T11:29:39.564Z,96674.31
2022-09-03T11:31:03.277Z,96671.50
2022-09-03T11:32:25.381Z,96673.56
2022-09-03T11:33:27.585Z,96670.56
2022-09-03T11:34:33.546Z,96672.41
2022-09-03T11:35:35.389Z,96669.06
2022-09-03T11:36:38.523Z,96667.47
2022-09-03T11:37:50.389Z,96667.13
2022-09-03T11:38:52.203Z,96666.03
2022-09-03T11:40:12.711Z,96678.50
2022-09-03T11:41:26.479Z,96675.38
2022-09-03T11:42:30.297Z,96665.13
2022-09-03T11:43:33.488Z,96671.03
2022-09-03T11:44:51.389Z,96672.38
2022-09-03T11:46:12.337Z,96680.47
2022-09-03T11:47:16.658Z,96678.38
2022-09-03T11:48:19.551Z,96684.75
2022-09-03T11:49:28.182Z,96676.06
2022-09-03T11:50:33.529Z,96678.38
2022-09-03T11:51:38.246Z,96684.75
2022-09-03T11:52:40.942Z,96687.34
2022-09-03T11:53:42.811Z,96687.78
2022-09-03T11:54:45.632Z,96677.50
2022-09-03T11:55:53.848Z,96685.00
2022-09-03T11:57:15.699Z,96682.44
2022-09-03T11:58:24.666Z,96682.09
2022-09-03T11:59:26.944Z,96677.47
2022-09-03T12:00:29.151Z,96683.66
2022-09-03T12:01:32.106Z,96681.91
2022-09-03T12:02:36.436Z,96677.97
2022-09-03T12:03:43.914Z,96683.88
2022-09-03T12:04:58.445Z,96681.03
2022-09-03T12:06:22.117Z,96681.63
2022-09-03T12:07:30.367Z,96687.97
2022-09-03T12:08:39.402Z,96684.13
2022-09-03T12:10:00.018Z,96692.72
2022-09-03T12:11:09.982Z,96699.13
2022-09-03T12:12:24.236Z,96695.75
2022-09-03T12:13:44.991Z,96693.28
2022-09-03T12:14:50.932Z,96697.13
2022-09-03T12:15:52.939Z,96692.69
2022-09-03T12:16:54.978Z,96694.06
2022-09-03T12:18:18.025Z,96703.75
2022-09-03T12:19:41.771Z,96700.09
2022-09-03T12:20:43.785Z,96691.09
2022-09-03T12:21:48.741Z,96692.44
2022-09-03T12:22:50.644Z,96694.63
2022-09-03T12:23:55.555Z,96687.50
2022-09-03T12:25:13.516Z,96703.31
2022-09-03T12:26:20.140Z,96692.44
2022-09-03T12:27:25.052Z,96696.97
2022-09-03T12:28:29.616Z,96683.94
2022-09-03T12:29:32.081Z,96694.41
2022-09-03T12:30:34.098Z,96692.53
2022-09-03T12:31:45.335Z,96693.59
2022-09-03T12:32:48.383Z,96694.97
2022-09-03T12:33:54.307Z,96691.81
2022-09-03T12:34:56.192Z,96691.59
2022-09-03T12:35:59.557Z,96694.59
2022-09-03T12:37:01.780Z,96687.66
2022-09-03T12:38:05.247Z,96694.88
2022-09-03T12:39:14.107Z,96685.28
2022-09-03T12:40:19.453Z,96681.03
2022-09-03T12:41:27.683Z,96683.69
2022-09-03T12:42:31.164Z,96681.31
2022-09-03T12:43:49.914Z,96677.06
2022-09-03T12:44:52.598Z,96672.31
2022-09-03T12:46:10.697Z,96672.31
2022-09-03T12:48:39.439Z,96678.75
2022-09-03T12:49:42.832Z,96673.69
2022-09-03T12:50:49.423Z,96675.56
2022-09-03T12:52:06.204Z,96672.91
2022-09-03T12:53:09.874Z,96675.56
2022-09-03T12:54:16.778Z,96672.09
2022-09-03T12:55:35.529Z,96668.88
2022-09-03T12:56:42.600Z,96672.25
2022-09-03T12:57:47.564Z,96672.66
2022-09-03T12:59:00.182Z,96669.63